sensor_id;sensor_type;location;lat;lon;timestamp;pressure;altitude;pressure_sealevel;temperature
64184;BMP280;50485;49.768;8.636;2022-07-29T00:02:04;100076.28;;;25.17
64184;BMP280;50485;49.768;8.636;2022-07-29T00:04:29;100069.28;;;25.12
64184;BMP280;50485;49.768;8.636;2022-07-29T00:06:55;100070.13;;;25.09
64184;BMP280;50485;49.768;8.636;2022-07-29T00:09:20;100066.63;;;25.05
64184;BMP280;50485;49.768;8.636;2022-07-29T00:11:45;100066.72;;;24.98
64184;BMP280;50485;49.768;8.636;2022-07-29T00:14:10;100064.75;;;24.98
64184;BMP280;50485;49.768;8.636;2022-07-29T00:16:35;100066.00;;;24.94
64184;BMP280;50485;49.768;8.636;2022-07-29T00:19:01;100058.13;;;24.96
64184;BMP280;50485;49.768;8.636;2022-07-29T00:21:26;100066.69;;;25.01
64184;BMP280;50485;49.768;8.636;2022-07-29T00:23:51;100074.91;;;25.01
64184;BMP280;50485;49.768;8.636;2022-07-29T00:26:16;100080.38;;;25.01
64184;BMP280;50485;49.768;8.636;2022-07-29T00:28:41;100077.59;;;25.05
64184;BMP280;50485;49.768;8.636;2022-07-29T00:31:07;100070.19;;;25.02
64184;BMP280;50485;49.768;8.636;2022-07-29T00:33:32;100074.13;;;25.01
64184;BMP280;50485;49.768;8.636;2022-07-29T00:35:58;100070.69;;;24.93
64184;BMP280;50485;49.768;8.636;2022-07-29T00:38:23;100075.44;;;24.93
64184;BMP280;50485;49.768;8.636;2022-07-29T00:40:48;100073.06;;;24.91
64184;BMP280;50485;49.768;8.636;2022-07-29T00:43:14;100069.09;;;24.96
64184;BMP280;50485;49.768;8.636;2022-07-29T00:45:39;100071.47;;;24.94
64184;BMP280;50485;49.768;8.636;2022-07-29T00:48:05;100071.84;;;24.96
64184;BMP280;50485;49.768;8.636;2022-07-29T00:50:31;100066.38;;;24.96
64184;BMP280;50485;49.768;8.636;2022-07-29T00:52:56;100067.97;;;24.93
64184;BMP280;50485;49.768;8.636;2022-07-29T00:55:22;100071.25;;;24.81
64184;BMP280;50485;49.768;8.636;2022-07-29T00:57:47;100065.66;;;24.88
64184;BMP280;50485;49.768;8.636;2022-07-29T01:00:14;100071.56;;;24.87
64184;BMP280;50485;49.768;8.636;2022-07-29T01:02:40;100061.38;;;24.87
64184;BMP280;50485;49.768;8.636;2022-07-29T01:05:05;100068.44;;;24.85
64184;BMP280;50485;49.768;8.636;2022-07-29T01:07:31;100061.75;;;24.89
64184;BMP280;50485;49.768;8.636;2022-07-29T01:09:57;100055.91;;;24.87
64184;BMP280;50485;49.768;8.636;2022-07-29T01:12:26;100049.44;;;24.70
64184;BMP280;50485;49.768;8.636;2022-07-29T01:14:52;100046.38;;;24.61
64184;BMP280;50485;49.768;8.636;2022-07-29T01:19:56;100045.91;;;24.70
64184;BMP280;50485;49.768;8.636;2022-07-29T01:22:27;100042.75;;;24.71
64184;BMP280;50485;49.768;8.636;2022-07-29T01:27:32;100038.13;;;24.65
64184;BMP280;50485;49.768;8.636;2022-07-29T01:30:01;100032.75;;;24.54
64184;BMP280;50485;49.768;8.636;2022-07-29T01:32:28;100044.47;;;24.58
64184;BMP280;50485;49.768;8.636;2022-07-29T01:35:04;100038.16;;;24.61
64184;BMP280;50485;49.768;8.636;2022-07-29T01:39:56;100039.78;;;24.59
64184;BMP280;50485;49.768;8.636;2022-07-29T01:42:35;100030.78;;;24.58
64184;BMP280;50485;49.768;8.636;2022-07-29T01:47:30;100031.22;;;24.53
64184;BMP280;50485;49.768;8.636;2022-07-29T01:49:56;100027.28;;;24.54
64184;BMP280;50485;49.768;8.636;2022-07-29T01:52:27;100027.28;;;24.54
64184;BMP280;50485;49.768;8.636;2022-07-29T01:54:57;100029.31;;;24.50
64184;BMP280;50485;49.768;8.636;2022-07-29T01:57:27;100024.19;;;24.52
64184;BMP280;50485;49.768;8.636;2022-07-29T01:59:54;100032.03;;;24.50
64184;BMP280;50485;49.768;8.636;2022-07-29T02:02:20;100027.28;;;24.54
64184;BMP280;50485;49.768;8.636;2022-07-29T02:04:46;100026.94;;;24.52
64184;BMP280;50485;49.768;8.636;2022-07-29T02:07:13;100026.16;;;24.52
64184;BMP280;50485;49.768;8.636;2022-07-29T02:09:40;100026.94;;;24.52
64184;BMP280;50485;49.768;8.636;2022-07-29T02:12:06;100020.69;;;24.52
64184;BMP280;50485;49.768;8.636;2022-07-29T02:14:34;100018.84;;;24.41
64184;BMP280;50485;49.768;8.636;2022-07-29T02:17:01;100016.94;;;24.35
64184;BMP280;50485;49.768;8.636;2022-07-29T02:19:27;100023.59;;;24.34
64184;BMP280;50485;49.768;8.636;2022-07-29T02:21:53;100024.06;;;24.29
64184;BMP280;50485;49.768;8.636;2022-07-29T02:24:19;100018.69;;;24.18
64184;BMP280;50485;49.768;8.636;2022-07-29T02:26:45;100017.41;;;24.26
64184;BMP280;50485;49.768;8.636;2022-07-29T02:29:12;100015.13;;;24.21
64184;BMP280;50485;49.768;8.636;2022-07-29T02:31:38;100011.63;;;24.21
64184;BMP280;50485;49.768;8.636;2022-07-29T02:34:05;100009.69;;;24.18
64184;BMP280;50485;49.768;8.636;2022-07-29T02:36:31;100007.81;;;24.11
64184;BMP280;50485;49.768;8.636;2022-07-29T02:38:57;100013.28;;;24.11
64184;BMP280;50485;49.768;8.636;2022-07-29T02:41:29;100005.09;;;24.07
64184;BMP280;50485;49.768;8.636;2022-07-29T02:43:56;100011.34;;;24.04
64184;BMP280;50485;49.768;8.636;2022-07-29T02:46:30;100016.13;;;24.00
64184;BMP280;50485;49.768;8.636;2022-07-29T02:48:58;100011.44;;;23.94
64184;BMP280;50485;49.768;8.636;2022-07-29T02:51:28;100012.59;;;24.00
64184;BMP280;50485;49.768;8.636;2022-07-29T02:53:56;100015.38;;;23.96
64184;BMP280;50485;49.768;8.636;2022-07-29T02:56:25;100015.34;;;24.00
64184;BMP280;50485;49.768;8.636;2022-07-29T02:58:56;100017.25;;;24.03
64184;BMP280;50485;49.768;8.636;2022-07-29T03:01:22;100007.91;;;24.00
64184;BMP280;50485;49.768;8.636;2022-07-29T03:03:49;100006.34;;;23.99
64184;BMP280;50485;49.768;8.636;2022-07-29T03:06:14;100006.81;;;23.87
64184;BMP280;50485;49.768;8.636;2022-07-29T03:08:40;100005.34;;;23.75
64184;BMP280;50485;49.768;8.636;2022-07-29T03:11:05;100006.91;;;23.76
64184;BMP280;50485;49.768;8.636;2022-07-29T03:13:32;100001.47;;;23.73
64184;BMP280;50485;49.768;8.636;2022-07-29T03:15:57;100002.97;;;23.77
64184;BMP280;50485;49.768;8.636;2022-07-29T03:18:23;99999.09;;;23.78
64184;BMP280;50485;49.768;8.636;2022-07-29T03:20:48;99996.81;;;23.66
64184;BMP280;50485;49.768;8.636;2022-07-29T03:23:18;100002.25;;;23.73
64184;BMP280;50485;49.768;8.636;2022-07-29T03:25:44;99998.25;;;23.82
64184;BMP280;50485;49.768;8.636;2022-07-29T03:28:09;99993.59;;;23.82
64184;BMP280;50485;49.768;8.636;2022-07-29T03:30:34;99995.97;;;23.76
64184;BMP280;50485;49.768;8.636;2022-07-29T03:32:59;99998.00;;;23.65
64184;BMP280;50485;49.768;8.636;2022-07-29T03:35:25;99981.94;;;23.71
64184;BMP280;50485;49.768;8.636;2022-07-29T03:37:51;99982.00;;;23.64
64184;BMP280;50485;49.768;8.636;2022-07-29T03:40:26;99990.69;;;23.52
64184;BMP280;50485;49.768;8.636;2022-07-29T03:42:52;99993.03;;;23.46
64184;BMP280;50485;49.768;8.636;2022-07-29T03:45:18;99987.97;;;23.48
64184;BMP280;50485;49.768;8.636;2022-07-29T03:47:48;99995.34;;;23.55
64184;BMP280;50485;49.768;8.636;2022-07-29T03:50:15;99991.81;;;23.58
64184;BMP280;50485;49.768;8.636;2022-07-29T03:52:41;99998.44;;;23.60
64184;BMP280;50485;49.768;8.636;2022-07-29T03:55:06;99996.50;;;23.54
64184;BMP280;50485;49.768;8.636;2022-07-29T03:57:32;99991.94;;;23.36
64184;BMP280;50485;49.768;8.636;2022-07-29T03:59:58;99994.28;;;23.38
64184;BMP280;50485;49.768;8.636;2022-07-29T04:02:24;100000.94;;;23.37
64184;BMP280;50485;49.768;8.636;2022-07-29T04:04:50;100000.13;;;23.36
64184;BMP280;50485;49.768;8.636;2022-07-29T04:07:15;99993.50;;;23.41
64184;BMP280;50485;49.768;8.636;2022-07-29T04:09:41;100009.13;;;23.40
64184;BMP280;50485;49.768;8.636;2022-07-29T04:12:06;100002.09;;;23.36
64184;BMP280;50485;49.768;8.636;2022-07-29T04:14:32;99995.88;;;23.32
64184;BMP280;50485;49.768;8.636;2022-07-29T04:16:57;100001.78;;;23.30
64184;BMP280;50485;49.768;8.636;2022-07-29T04:19:22;100000.91;;;23.40
64184;BMP280;50485;49.768;8.636;2022-07-29T04:21:48;99998.22;;;23.37
64184;BMP280;50485;49.768;8.636;2022-07-29T04:24:13;100003.34;;;23.21
64184;BMP280;50485;49.768;8.636;2022-07-29T04:26:38;100004.53;;;23.23
64184;BMP280;50485;49.768;8.636;2022-07-29T04:29:03;100000.22;;;23.22
64184;BMP280;50485;49.768;8.636;2022-07-29T04:31:28;100012.75;;;23.20
64184;BMP280;50485;49.768;8.636;2022-07-29T04:33:53;100008.41;;;23.26
64184;BMP280;50485;49.768;8.636;2022-07-29T04:36:19;100011.13;;;23.26
64184;BMP280;50485;49.768;8.636;2022-07-29T04:38:44;100008.09;;;23.13
64184;BMP280;50485;49.768;8.636;2022-07-29T04:41:09;100006.53;;;23.05
64184;BMP280;50485;49.768;8.636;2022-07-29T04:43:34;100008.94;;;23.03
64184;BMP280;50485;49.768;8.636;2022-07-29T04:46:00;100006.50;;;23.15
64184;BMP280;50485;49.768;8.636;2022-07-29T04:48:25;100010.38;;;23.25
64184;BMP280;50485;49.768;8.636;2022-07-29T04:50:51;100013.47;;;23.27
64184;BMP280;50485;49.768;8.636;2022-07-29T04:53:16;100010.41;;;23.18
64184;BMP280;50485;49.768;8.636;2022-07-29T04:55:42;100006.91;;;23.14
64184;BMP280;50485;49.768;8.636;2022-07-29T04:58:07;100007.34;;;23.09
64184;BMP280;50485;49.768;8.636;2022-07-29T05:00:32;100008.53;;;23.04
64184;BMP280;50485;49.768;8.636;2022-07-29T05:02:57;100008.53;;;23.04
64184;BMP280;50485;49.768;8.636;2022-07-29T05:05:22;100003.47;;;23.03
64184;BMP280;50485;49.768;8.636;2022-07-29T05:07:48;100003.41;;;23.10
64184;BMP280;50485;49.768;8.636;2022-07-29T05:10:13;100010.72;;;23.31
64184;BMP280;50485;49.768;8.636;2022-07-29T05:12:38;100013.75;;;23.43
64184;BMP280;50485;49.768;8.636;2022-07-29T05:15:03;100016.78;;;23.63
64184;BMP280;50485;49.768;8.636;2022-07-29T05:17:29;100017.94;;;23.66
64184;BMP280;50485;49.768;8.636;2022-07-29T05:19:54;100022.50;;;23.79
64184;BMP280;50485;49.768;8.636;2022-07-29T05:22:19;100015.13;;;23.73
64184;BMP280;50485;49.768;8.636;2022-07-29T05:24:45;100017.47;;;23.74
64184;BMP280;50485;49.768;8.636;2022-07-29T05:27:10;100022.47;;;23.87
64184;BMP280;50485;49.768;8.636;2022-07-29T05:29:36;100013.16;;;23.77
64184;BMP280;50485;49.768;8.636;2022-07-29T05:32:01;100012.41;;;23.73
64184;BMP280;50485;49.768;8.636;2022-07-29T05:34:26;100029.13;;;23.86
64184;BMP280;50485;49.768;8.636;2022-07-29T05:36:52;100031.97;;;24.16
64184;BMP280;50485;49.768;8.636;2022-07-29T05:39:17;100027.16;;;24.31
64184;BMP280;50485;49.768;8.636;2022-07-29T05:41:42;100030.50;;;24.49
64184;BMP280;50485;49.768;8.636;2022-07-29T05:44:07;100031.16;;;24.60
64184;BMP280;50485;49.768;8.636;2022-07-29T05:46:32;100030.66;;;24.69
64184;BMP280;50485;49.768;8.636;2022-07-29T05:48:58;100032.09;;;24.81
64184;BMP280;50485;49.768;8.636;2022-07-29T05:51:23;100024.50;;;24.92
64184;BMP280;50485;49.768;8.636;2022-07-29T05:53:48;100038.81;;;25.06
64184;BMP280;50485;49.768;8.636;2022-07-29T05:56:13;100037.84;;;25.20
64184;BMP280;50485;49.768;8.636;2022-07-29T05:58:38;100046.69;;;25.31
64184;BMP280;50485;49.768;8.636;2022-07-29T06:01:03;100035.16;;;25.44
64184;BMP280;50485;49.768;8.636;2022-07-29T06:03:29;100046.41;;;25.53
64184;BMP280;50485;49.768;8.636;2022-07-29T06:05:55;100050.16;;;25.62
64184;BMP280;50485;49.768;8.636;2022-07-29T06:08:20;100043.31;;;25.74
64184;BMP280;50485;49.768;8.636;2022-07-29T06:10:45;100042.72;;;25.86
64184;BMP280;50485;49.768;8.636;2022-07-29T06:13:11;100041.75;;;25.96
64184;BMP280;50485;49.768;8.636;2022-07-29T06:15:36;100047.94;;;26.04
64184;BMP280;50485;49.768;8.636;2022-07-29T06:18:01;100053.25;;;26.15
64184;BMP280;50485;49.768;8.636;2022-07-29T06:20:30;100050.63;;;26.27
64184;BMP280;50485;49.768;8.636;2022-07-29T06:22:55;100056.41;;;26.33
64184;BMP280;50485;49.768;8.636;2022-07-29T06:25:21;100057.00;;;26.44
64184;BMP280;50485;49.768;8.636;2022-07-29T06:27:46;100052.38;;;26.61
64184;BMP280;50485;49.768;8.636;2022-07-29T06:30:11;100055.94;;;26.58
64184;BMP280;50485;49.768;8.636;2022-07-29T06:32:36;100055.94;;;26.78
64184;BMP280;50485;49.768;8.636;2022-07-29T06:35:02;100049.38;;;26.91
64184;BMP280;50485;49.768;8.636;2022-07-29T06:37:27;100053.44;;;27.03
64184;BMP280;50485;49.768;8.636;2022-07-29T06:39:52;100051.75;;;27.09
64184;BMP280;50485;49.768;8.636;2022-07-29T06:42:41;100054.84;;;27.27
64184;BMP280;50485;49.768;8.636;2022-07-29T06:45:06;100044.69;;;27.08
64184;BMP280;50485;49.768;8.636;2022-07-29T06:47:31;100042.25;;;26.94
64184;BMP280;50485;49.768;8.636;2022-07-29T06:49:57;100045.50;;;26.89
64184;BMP280;50485;49.768;8.636;2022-07-29T06:52:22;100058.69;;;26.78
64184;BMP280;50485;49.768;8.636;2022-07-29T06:54:47;100048.66;;;26.87
64184;BMP280;50485;49.768;8.636;2022-07-29T06:57:13;100053.34;;;26.70
64184;BMP280;50485;49.768;8.636;2022-07-29T06:59:38;100056.78;;;26.75
64184;BMP280;50485;49.768;8.636;2022-07-29T07:02:03;100065.59;;;26.86
64184;BMP280;50485;49.768;8.636;2022-07-29T07:04:28;100059.44;;;26.78
64184;BMP280;50485;49.768;8.636;2022-07-29T07:06:54;100077.78;;;26.85
64184;BMP280;50485;49.768;8.636;2022-07-29T07:09:20;100076.25;;;27.20
64184;BMP280;50485;49.768;8.636;2022-07-29T07:11:45;100077.31;;;27.58
64184;BMP280;50485;49.768;8.636;2022-07-29T07:14:10;100077.94;;;27.66
64184;BMP280;50485;49.768;8.636;2022-07-29T07:16:36;100083.53;;;27.79
64184;BMP280;50485;49.768;8.636;2022-07-29T07:19:01;100085.31;;;28.01
64184;BMP280;50485;49.768;8.636;2022-07-29T07:21:26;100082.06;;;27.74
64184;BMP280;50485;49.768;8.636;2022-07-29T07:23:51;100081.97;;;27.78
64184;BMP280;50485;49.768;8.636;2022-07-29T07:26:17;100083.78;;;27.84
64184;BMP280;50485;49.768;8.636;2022-07-29T07:28:42;100079.13;;;27.97
64184;BMP280;50485;49.768;8.636;2022-07-29T07:31:07;100084.09;;;27.86
64184;BMP280;50485;49.768;8.636;2022-07-29T07:33:32;100084.97;;;27.83
64184;BMP280;50485;49.768;8.636;2022-07-29T07:35:57;100095.22;;;27.99
64184;BMP280;50485;49.768;8.636;2022-07-29T07:38:23;100085.81;;;28.13
64184;BMP280;50485;49.768;8.636;2022-07-29T07:40:48;100086.97;;;28.28
64184;BMP280;50485;49.768;8.636;2022-07-29T07:43:13;100086.47;;;28.46
64184;BMP280;50485;49.768;8.636;2022-07-29T07:45:38;100088.03;;;28.18
64184;BMP280;50485;49.768;8.636;2022-07-29T07:48:05;100084.22;;;28.57
64184;BMP280;50485;49.768;8.636;2022-07-29T07:50:30;100077.13;;;28.43
64184;BMP280;50485;49.768;8.636;2022-07-29T07:52:55;100092.13;;;28.96
64184;BMP280;50485;49.768;8.636;2022-07-29T07:55:24;100086.72;;;28.51
64184;BMP280;50485;49.768;8.636;2022-07-29T07:57:50;100091.25;;;28.99
64184;BMP280;50485;49.768;8.636;2022-07-29T08:00:16;100083.78;;;28.58
64184;BMP280;50485;49.768;8.636;2022-07-29T08:02:41;100087.53;;;28.35
64184;BMP280;50485;49.768;8.636;2022-07-29T08:05:07;100086.53;;;28.29
64184;BMP280;50485;49.768;8.636;2022-07-29T08:07:33;100084.91;;;28.73
64184;BMP280;50485;49.768;8.636;2022-07-29T08:09:58;100085.28;;;29.01
64184;BMP280;50485;49.768;8.636;2022-07-29T08:12:23;100090.25;;;29.06
64184;BMP280;50485;49.768;8.636;2022-07-29T08:14:48;100087.69;;;28.86
64184;BMP280;50485;49.768;8.636;2022-07-29T08:17:14;100089.47;;;28.93
64184;BMP280;50485;49.768;8.636;2022-07-29T08:19:39;100091.88;;;28.91
64184;BMP280;50485;49.768;8.636;2022-07-29T08:22:04;100096.09;;;29.21
64184;BMP280;50485;49.768;8.636;2022-07-29T08:24:29;100098.84;;;29.08
64184;BMP280;50485;49.768;8.636;2022-07-29T08:27:30;100094.34;;;29.14
64184;BMP280;50485;49.768;8.636;2022-07-29T08:29:56;100099.19;;;29.35
64184;BMP280;50485;49.768;8.636;2022-07-29T08:32:22;100094.03;;;29.12
64184;BMP280;50485;49.768;8.636;2022-07-29T08:34:47;100101.28;;;29.44
64184;BMP280;50485;49.768;8.636;2022-07-29T08:37:13;100096.47;;;29.83
64184;BMP280;50485;49.768;8.636;2022-07-29T08:39:38;100087.13;;;29.55
64184;BMP280;50485;49.768;8.636;2022-07-29T08:42:03;100100.75;;;29.24
64184;BMP280;50485;49.768;8.636;2022-07-29T08:44:28;100094.75;;;29.25
64184;BMP280;50485;49.768;8.636;2022-07-29T08:46:54;100109.00;;;29.49
64184;BMP280;50485;49.768;8.636;2022-07-29T08:49:19;100107.69;;;29.28
64184;BMP280;50485;49.768;8.636;2022-07-29T08:51:44;100104.59;;;29.01
64184;BMP280;50485;49.768;8.636;2022-07-29T08:54:10;100111.66;;;29.53
64184;BMP280;50485;49.768;8.636;2022-07-29T08:56:36;100107.69;;;30.23
64184;BMP280;50485;49.768;8.636;2022-07-29T08:59:03;100097.16;;;30.08
64184;BMP280;50485;49.768;8.636;2022-07-29T09:01:28;100095.94;;;29.75
64184;BMP280;50485;49.768;8.636;2022-07-29T09:03:55;100099.34;;;29.66
64184;BMP280;50485;49.768;8.636;2022-07-29T09:06:21;100103.41;;;29.87
64184;BMP280;50485;49.768;8.636;2022-07-29T09:08:46;100100.97;;;30.24
64184;BMP280;50485;49.768;8.636;2022-07-29T09:11:12;100106.28;;;30.40
64184;BMP280;50485;49.768;8.636;2022-07-29T09:13:38;100092.22;;;29.69
64184;BMP280;50485;49.768;8.636;2022-07-29T09:16:03;100091.91;;;29.54
64184;BMP280;50485;49.768;8.636;2022-07-29T09:18:36;100101.13;;;29.73
64184;BMP280;50485;49.768;8.636;2022-07-29T09:21:02;100100.50;;;30.03
64184;BMP280;50485;49.768;8.636;2022-07-29T09:24:04;100099.47;;;29.75
64184;BMP280;50485;49.768;8.636;2022-07-29T09:26:30;100103.00;;;29.76
64184;BMP280;50485;49.768;8.636;2022-07-29T09:28:55;100093.25;;;29.84
64184;BMP280;50485;49.768;8.636;2022-07-29T09:31:26;100099.19;;;29.95
64184;BMP280;50485;49.768;8.636;2022-07-29T09:33:57;100095.38;;;30.14
64184;BMP280;50485;49.768;8.636;2022-07-29T09:36:22;100097.38;;;30.98
64184;BMP280;50485;49.768;8.636;2022-07-29T09:38:57;100102.75;;;31.32
64184;BMP280;50485;49.768;8.636;2022-07-29T09:41:23;100095.47;;;31.93
64184;BMP280;50485;49.768;8.636;2022-07-29T09:43:57;100103.44;;;32.27
64184;BMP280;50485;49.768;8.636;2022-07-29T09:46:23;100101.72;;;32.39
64184;BMP280;50485;49.768;8.636;2022-07-29T09:49:08;100108.63;;;32.86
64184;BMP280;50485;49.768;8.636;2022-07-29T09:51:34;100111.41;;;33.19
64184;BMP280;50485;49.768;8.636;2022-07-29T09:53:59;100097.47;;;32.71
64184;BMP280;50485;49.768;8.636;2022-07-29T09:56:40;100108.84;;;33.39
64184;BMP280;50485;49.768;8.636;2022-07-29T09:59:06;100109.84;;;34.04
64184;BMP280;50485;49.768;8.636;2022-07-29T10:01:32;100107.94;;;34.25
64184;BMP280;50485;49.768;8.636;2022-07-29T10:03:57;100098.84;;;33.32
64184;BMP280;50485;49.768;8.636;2022-07-29T10:06:22;100108.63;;;33.66
64184;BMP280;50485;49.768;8.636;2022-07-29T10:08:47;100102.75;;;34.03
64184;BMP280;50485;49.768;8.636;2022-07-29T10:11:15;100080.69;;;31.69
64184;BMP280;50485;49.768;8.636;2022-07-29T10:13:40;100088.38;;;31.15
64184;BMP280;50485;49.768;8.636;2022-07-29T10:16:06;100095.22;;;30.62
64184;BMP280;50485;49.768;8.636;2022-07-29T10:18:31;100089.19;;;30.54
64184;BMP280;50485;49.768;8.636;2022-07-29T10:20:57;100092.91;;;30.60
64184;BMP280;50485;49.768;8.636;2022-07-29T10:23:22;100077.44;;;30.41
64184;BMP280;50485;49.768;8.636;2022-07-29T10:25:47;100084.03;;;30.22
64184;BMP280;50485;49.768;8.636;2022-07-29T10:28:12;100078.59;;;30.31
64184;BMP280;50485;49.768;8.636;2022-07-29T10:30:38;100082.97;;;30.41
64184;BMP280;50485;49.768;8.636;2022-07-29T10:33:14;100080.38;;;30.25
64184;BMP280;50485;49.768;8.636;2022-07-29T10:41:07;100086.31;;;30.14
64184;BMP280;50485;49.768;8.636;2022-07-29T10:43:51;100080.56;;;30.08
64184;BMP280;50485;49.768;8.636;2022-07-29T10:46:18;100078.97;;;30.42
64184;BMP280;50485;49.768;8.636;2022-07-29T10:51:39;100073.34;;;30.33
64184;BMP280;50485;49.768;8.636;2022-07-29T10:54:12;100074.53;;;30.44
64184;BMP280;50485;49.768;8.636;2022-07-29T10:56:37;100071.38;;;30.11
64184;BMP280;50485;49.768;8.636;2022-07-29T11:01:44;100061.81;;;30.47
64184;BMP280;50485;49.768;8.636;2022-07-29T11:04:09;100056.03;;;30.54
64184;BMP280;50485;49.768;8.636;2022-07-29T11:09:19;100051.00;;;30.40
64184;BMP280;50485;49.768;8.636;2022-07-29T11:11:44;100059.59;;;30.42
64184;BMP280;50485;49.768;8.636;2022-07-29T11:14:10;100055.66;;;29.87
64184;BMP280;50485;49.768;8.636;2022-07-29T11:19:19;100060.19;;;29.93
64184;BMP280;50485;49.768;8.636;2022-07-29T11:21:45;100055.66;;;29.87
64184;BMP280;50485;49.768;8.636;2022-07-29T11:24:19;100063.53;;;29.88
64184;BMP280;50485;49.768;8.636;2022-07-29T11:26:46;100056.97;;;29.95
64184;BMP280;50485;49.768;8.636;2022-07-29T11:29:30;100058.81;;;29.76
64184;BMP280;50485;49.768;8.636;2022-07-29T11:31:57;100052.53;;;29.97
64184;BMP280;50485;49.768;8.636;2022-07-29T11:34:32;100050.06;;;29.77
64184;BMP280;50485;49.768;8.636;2022-07-29T11:47:21;100038.19;;;29.68
64184;BMP280;50485;49.768;8.636;2022-07-29T11:49:48;100036.81;;;29.85
64184;BMP280;50485;49.768;8.636;2022-07-29T11:52:13;100037.38;;;29.80
64184;BMP280;50485;49.768;8.636;2022-07-29T11:54:38;100038.75;;;29.63
64184;BMP280;50485;49.768;8.636;2022-07-29T11:57:06;100035.44;;;29.90
64184;BMP280;50485;49.768;8.636;2022-07-29T11:59:32;100028.63;;;29.82
64184;BMP280;50485;49.768;8.636;2022-07-29T12:02:03;100028.63;;;29.82
64184;BMP280;50485;49.768;8.636;2022-07-29T12:04:28;100016.94;;;29.77
64184;BMP280;50485;49.768;8.636;2022-07-29T12:06:54;100022.66;;;29.83
64184;BMP280;50485;49.768;8.636;2022-07-29T12:09:20;100024.13;;;29.75
64184;BMP280;50485;49.768;8.636;2022-07-29T12:11:45;100030.69;;;29.90
64184;BMP280;50485;49.768;8.636;2022-07-29T12:14:30;100015.88;;;29.62
64184;BMP280;50485;49.768;8.636;2022-07-29T12:16:56;100018.66;;;29.62
64184;BMP280;50485;49.768;8.636;2022-07-29T12:19:21;100017.97;;;29.71
64184;BMP280;50485;49.768;8.636;2022-07-29T12:21:47;100022.41;;;29.56
64184;BMP280;50485;49.768;8.636;2022-07-29T12:24:12;100020.47;;;29.78
64184;BMP280;50485;49.768;8.636;2022-07-29T12:29:16;100009.56;;;29.74
64184;BMP280;50485;49.768;8.636;2022-07-29T12:31:42;100016.13;;;29.55
64184;BMP280;50485;49.768;8.636;2022-07-29T12:34:07;100004.94;;;29.59
64184;BMP280;50485;49.768;8.636;2022-07-29T12:36:33;100002.44;;;29.86
64184;BMP280;50485;49.768;8.636;2022-07-29T12:38:58;100001.97;;;29.66
64184;BMP280;50485;49.768;8.636;2022-07-29T12:41:23;100000.44;;;29.52
64184;BMP280;50485;49.768;8.636;2022-07-29T12:43:55;99994.50;;;29.75
64184;BMP280;50485;49.768;8.636;2022-07-29T12:46:20;99996.25;;;29.82
64184;BMP280;50485;49.768;8.636;2022-07-29T12:48:49;99995.16;;;29.79
64184;BMP280;50485;49.768;8.636;2022-07-29T12:51:15;99997.66;;;29.65
64184;BMP280;50485;49.768;8.636;2022-07-29T12:53:41;99997.78;;;29.49
64184;BMP280;50485;49.768;8.636;2022-07-29T12:56:26;99991.13;;;29.71
64184;BMP280;50485;49.768;8.636;2022-07-29T12:58:51;99983.25;;;29.70
64184;BMP280;50485;49.768;8.636;2022-07-29T13:01:16;99992.91;;;29.65
64184;BMP280;50485;49.768;8.636;2022-07-29T13:11:45;99985.38;;;29.66
64184;BMP280;50485;49.768;8.636;2022-07-29T13:14:11;99992.63;;;29.51
64184;BMP280;50485;49.768;8.636;2022-07-29T13:16:50;99994.06;;;29.77
64184;BMP280;50485;49.768;8.636;2022-07-29T13:19:31;99986.91;;;29.67
64184;BMP280;50485;49.768;8.636;2022-07-29T13:21:56;99988.88;;;29.66
64184;BMP280;50485;49.768;8.636;2022-07-29T13:24:22;99990.84;;;29.78
64184;BMP280;50485;49.768;8.636;2022-07-29T13:26:47;99986.91;;;29.67
64184;BMP280;50485;49.768;8.636;2022-07-29T13:29:12;99984.53;;;29.56
64184;BMP280;50485;49.768;8.636;2022-07-29T13:31:37;99988.88;;;29.66
64184;BMP280;50485;49.768;8.636;2022-07-29T13:34:02;99976.22;;;29.69
64184;BMP280;50485;49.768;8.636;2022-07-29T13:36:28;99989.88;;;29.51
64184;BMP280;50485;49.768;8.636;2022-07-29T13:38:53;99977.53;;;29.64
64184;BMP280;50485;49.768;8.636;2022-07-29T13:41:18;99985.66;;;29.46
64184;BMP280;50485;49.768;8.636;2022-07-29T13:43:43;99984.34;;;29.51
64184;BMP280;50485;49.768;8.636;2022-07-29T13:46:08;99984.84;;;29.58
64184;BMP280;50485;49.768;8.636;2022-07-29T13:48:34;99981.97;;;29.62
64184;BMP280;50485;49.768;8.636;2022-07-29T13:50:59;99988.63;;;29.52
64184;BMP280;50485;49.768;8.636;2022-07-29T13:53:24;99988.06;;;29.57
64184;BMP280;50485;49.768;8.636;2022-07-29T13:55:49;99983.84;;;29.65
64184;BMP280;50485;49.768;8.636;2022-07-29T13:58:16;99986.28;;;29.63
64184;BMP280;50485;49.768;8.636;2022-07-29T14:00:41;99981.75;;;29.69
64184;BMP280;50485;49.768;8.636;2022-07-29T14:03:06;99976.34;;;29.65
64184;BMP280;50485;49.768;8.636;2022-07-29T14:05:31;99976.84;;;29.51
64184;BMP280;50485;49.768;8.636;2022-07-29T14:07:57;99967.16;;;29.68
64184;BMP280;50485;49.768;8.636;2022-07-29T14:10:22;99976.44;;;29.62
64184;BMP280;50485;49.768;8.636;2022-07-29T14:12:47;99967.69;;;29.63
64184;BMP280;50485;49.768;8.636;2022-07-29T14:15:12;99972.47;;;29.63
64184;BMP280;50485;49.768;8.636;2022-07-29T14:17:37;99975.97;;;29.63
64184;BMP280;50485;49.768;8.636;2022-07-29T14:20:03;99986.50;;;29.56
64184;BMP280;50485;49.768;8.636;2022-07-29T14:22:28;99975.78;;;29.58
64184;BMP280;50485;49.768;8.636;2022-07-29T14:24:54;99976.69;;;29.55
64184;BMP280;50485;49.768;8.636;2022-07-29T14:27:19;99985.03;;;29.64
64184;BMP280;50485;49.768;8.636;2022-07-29T14:29:44;99985.03;;;29.64
64184;BMP280;50485;49.768;8.636;2022-07-29T14:32:09;99989.94;;;29.60
64184;BMP280;50485;49.768;8.636;2022-07-29T14:34:35;99984.53;;;29.56
64184;BMP280;50485;49.768;8.636;2022-07-29T14:37:01;99988.88;;;29.44
64184;BMP280;50485;49.768;8.636;2022-07-29T14:39:27;99990.16;;;29.53
64184;BMP280;50485;49.768;8.636;2022-07-29T14:41:52;99990.81;;;29.57
64184;BMP280;50485;49.768;8.636;2022-07-29T14:44:18;99986.13;;;29.66